This is the latest recevied weather packets stored in our database for station/object KE0YJJ-14. If no packets are shown the sender has not sent any weather packets the latest 10 day(s).
| Time | Temp. | Humidity | Pressure | Rain* | Wind** | Luminosity | Snow |
|---|---|---|---|---|---|---|---|
| 1777578506 | 10° C | 39% | - | 0 mm | - | - | - |
| 1777578205 | 10° C | 42% | - | 0 mm | - | - | - |
| 1777577901 | 9.44° C | 43% | - | 0 mm | - | - | - |
| 1777577597 | 9.44° C | 41% | - | 0 mm | - | - | - |
| 1777577294 | 10° C | 43% | - | 0 mm | - | - | - |
| 1777576990 | 9.44° C | 44% | - | 0 mm | - | - | - |
| 1777576687 | 8.89° C | 46% | - | 0 mm | - | - | - |
| 1777576386 | 10° C | 42% | - | 0 mm | - | - | - |
| 1777576083 | 8.89° C | 47% | - | 0 mm | - | - | - |
| 1777575779 | 8.89° C | 46% | - | 0 mm | - | - | - |
| 1777575475 | 8.89° C | 46% | - | 0 mm | - | - | - |
| 1777575171 | 9.44° C | 45% | - | 0 mm | - | - | - |
| 1777574867 | 9.44° C | 44% | - | 0 mm | - | - | - |
| 1777574565 | 8.89° C | 43% | - | 0 mm | - | - | - |
| 1777574261 | 8.33° C | 47% | - | 0 mm | - | - | - |
| 1777573956 | 8.89° C | 46% | - | 0 mm | - | - | - |
| 1777573651 | 8.89° C | 47% | - | 0 mm | - | - | - |
| 1777573348 | 8.89° C | 46% | - | 0 mm | - | - | - |
| 1777573043 | 8.89° C | 47% | - | 0 mm | - | - | - |
| 1777572741 | 9.44° C | 44% | - | 0 mm | - | - | - |
| 1777572436 | 8.89° C | 45% | - | 0 mm | - | - | - |
| 1777572132 | 9.44° C | 46% | - | 0 mm | - | - | - |
| 1777571827 | 10° C | 44% | - | 0 mm | - | - | - |
| 1777571523 | 8.89° C | 46% | - | 0 mm | - | - | - |
| 1777571220 | 7.78° C | 47% | - | 0 mm | - | - | - |
* Rain latest hour (hover to see other rain measurements)
** Current wind speed in m/s (hover to see current wind gust speed)